Alva, Oklahoma
Current Conditions -  °F | °C
As of 10:35 AM on Wednesday 26 Nov 2014 (Local Time) from KAVK Reporting Station
Overcast Overcast  
Wind Chill: 50°   Ceiling: 10000
Heat Index: 50°   Visibility: 10mi
Dew Point: 28°   Wind: 23mph
Humidity: 43%   Direction: 320°NW
Pressure: 30.21"   Gusts: 30mph
Location:  36.8°N, 98.67°W
Report Text: KAVK 261635Z AUTO 32020G26KT 10SM OVC100 10/M02 A3021 RMK AO2
Loading
Personal Weather Stations






























Interactive Weather Map New forecast layout! Learn more

10-Day Weather Forecast

Advertisements
Track Severe Weather on mobile